sensor_id;sensor_type;location;lat;lon;timestamp;pressure;altitude;pressure_sealevel;temperature
64904;BMP280;51401;48.882;12.598;2023-03-14T00:02:06;89704.34;;;8.03
64904;BMP280;51401;48.882;12.598;2023-03-14T00:04:31;89705.28;;;8.08
64904;BMP280;51401;48.882;12.598;2023-03-14T00:06:56;89697.56;;;7.98
64904;BMP280;51401;48.882;12.598;2023-03-14T00:09:21;89660.16;;;7.97
64904;BMP280;51401;48.882;12.598;2023-03-14T00:11:47;89642.81;;;7.98
64904;BMP280;51401;48.882;12.598;2023-03-14T00:14:12;89636.44;;;7.99
64904;BMP280;51401;48.882;12.598;2023-03-14T00:16:38;89602.34;;;7.89
64904;BMP280;51401;48.882;12.598;2023-03-14T00:19:03;89569.06;;;7.81
64904;BMP280;51401;48.882;12.598;2023-03-14T00:21:28;89512.19;;;7.78
64904;BMP280;51401;48.882;12.598;2023-03-14T00:23:53;89436.09;;;7.75
64904;BMP280;51401;48.882;12.598;2023-03-14T00:26:20;89346.41;;;7.80
64904;BMP280;51401;48.882;12.598;2023-03-14T00:28:46;89303.59;;;7.85
64904;BMP280;51401;48.882;12.598;2023-03-14T00:31:15;89205.53;;;8.02
64904;BMP280;51401;48.882;12.598;2023-03-14T00:33:40;89288.63;;;7.93
64904;BMP280;51401;48.882;12.598;2023-03-14T00:36:08;89225.53;;;7.92
64904;BMP280;51401;48.882;12.598;2023-03-14T00:38:35;89169.25;;;7.86
64904;BMP280;51401;48.882;12.598;2023-03-14T00:41:08;89146.44;;;7.92
64904;BMP280;51401;48.882;12.598;2023-03-14T00:43:33;89120.59;;;7.90
64904;BMP280;51401;48.882;12.598;2023-03-14T00:45:59;89078.09;;;7.89
64904;BMP280;51401;48.882;12.598;2023-03-14T00:48:24;89034.22;;;7.87
64904;BMP280;51401;48.882;12.598;2023-03-14T00:50:49;89031.75;;;7.89
64904;BMP280;51401;48.882;12.598;2023-03-14T00:53:15;89009.50;;;7.94
64904;BMP280;51401;48.882;12.598;2023-03-14T00:55:41;89004.78;;;7.90
64904;BMP280;51401;48.882;12.598;2023-03-14T00:58:12;88953.69;;;7.85
64904;BMP280;51401;48.882;12.598;2023-03-14T01:00:37;88935.66;;;7.85
64904;BMP280;51401;48.882;12.598;2023-03-14T01:03:03;88945.41;;;7.86
64904;BMP280;51401;48.882;12.598;2023-03-14T01:05:29;88951.22;;;7.87
64904;BMP280;51401;48.882;12.598;2023-03-14T01:07:54;88890.09;;;7.99
64904;BMP280;51401;48.882;12.598;2023-03-14T01:10:20;88866.91;;;8.10
64904;BMP280;51401;48.882;12.598;2023-03-14T01:12:45;88863.44;;;8.17
64904;BMP280;51401;48.882;12.598;2023-03-14T01:15:11;88862.94;;;8.20
64904;BMP280;51401;48.882;12.598;2023-03-14T01:17:36;88845.50;;;8.19
64904;BMP280;51401;48.882;12.598;2023-03-14T01:20:03;88729.31;;;8.38
64904;BMP280;51401;48.882;12.598;2023-03-14T01:22:30;88681.94;;;8.56
64904;BMP280;51401;48.882;12.598;2023-03-14T01:24:55;88716.00;;;8.54
64904;BMP280;51401;48.882;12.598;2023-03-14T01:27:20;88686.78;;;8.50
64904;BMP280;51401;48.882;12.598;2023-03-14T01:29:46;88512.81;;;8.60
64904;BMP280;51401;48.882;12.598;2023-03-14T01:32:12;88475.81;;;8.54
64904;BMP280;51401;48.882;12.598;2023-03-14T01:34:38;88443.31;;;8.47
64904;BMP280;51401;48.882;12.598;2023-03-14T01:37:03;88389.31;;;8.49
64904;BMP280;51401;48.882;12.598;2023-03-14T01:39:28;88325.50;;;8.47
64904;BMP280;51401;48.882;12.598;2023-03-14T01:41:54;88226.38;;;8.46
64904;BMP280;51401;48.882;12.598;2023-03-14T01:44:19;88143.22;;;8.44
64904;BMP280;51401;48.882;12.598;2023-03-14T01:46:45;88019.00;;;8.43
64904;BMP280;51401;48.882;12.598;2023-03-14T01:49:29;87910.78;;;8.41
64904;BMP280;51401;48.882;12.598;2023-03-14T01:51:59;87769.34;;;8.45
64904;BMP280;51401;48.882;12.598;2023-03-14T01:54:38;87654.09;;;8.44
64904;BMP280;51401;48.882;12.598;2023-03-14T01:59:37;87379.53;;;8.50
64904;BMP280;51401;48.882;12.598;2023-03-14T02:02:05;87149.16;;;8.51
64904;BMP280;51401;48.882;12.598;2023-03-14T02:04:34;86786.94;;;8.54
64904;BMP280;51401;48.882;12.598;2023-03-14T02:07:18;86342.31;;;8.50
64904;BMP280;51401;48.882;12.598;2023-03-14T02:09:45;85865.03;;;8.49
64904;BMP280;51401;48.882;12.598;2023-03-14T02:12:14;85329.94;;;8.49
64904;BMP280;51401;48.882;12.598;2023-03-14T02:14:40;84726.13;;;8.52
64904;BMP280;51401;48.882;12.598;2023-03-14T02:17:07;83851.75;;;8.56
64904;BMP280;51401;48.882;12.598;2023-03-14T02:22:17;81899.63;;;8.65
64904;BMP280;51401;48.882;12.598;2023-03-14T02:25:06;80696.41;;;8.67
64904;BMP280;51401;48.882;12.598;2023-03-14T02:27:33;79490.91;;;8.70
64904;BMP280;51401;48.882;12.598;2023-03-14T02:30:02;78573.34;;;8.67
64904;BMP280;51401;48.882;12.598;2023-03-14T02:32:30;77628.78;;;8.58
64904;BMP280;51401;48.882;12.598;2023-03-14T02:34:59;76413.50;;;8.54
64904;BMP280;51401;48.882;12.598;2023-03-14T02:37:32;74490.06;;;8.79
64904;BMP280;51401;48.882;12.598;2023-03-14T02:39:59;71679.06;;;9.17
64904;BMP280;51401;48.882;12.598;2023-03-14T02:42:24;69023.38;;;9.33
64904;BMP280;51401;48.882;12.598;2023-03-14T02:44:53;66289.22;;;9.35
64904;BMP280;51401;48.882;12.598;2023-03-14T02:47:22;63820.81;;;9.38
64904;BMP280;51401;48.882;12.598;2023-03-14T02:49:51;61687.38;;;9.41
64904;BMP280;51401;48.882;12.598;2023-03-14T02:52:18;59867.19;;;9.42
64904;BMP280;51401;48.882;12.598;2023-03-14T02:54:43;58116.53;;;9.46
64904;BMP280;51401;48.882;12.598;2023-03-14T02:57:08;56736.34;;;9.46
64904;BMP280;51401;48.882;12.598;2023-03-14T02:59:34;55512.50;;;9.49
64904;BMP280;51401;48.882;12.598;2023-03-14T03:01:59;54818.72;;;9.49
64904;BMP280;51401;48.882;12.598;2023-03-14T03:04:24;54339.19;;;9.48
64904;BMP280;51401;48.882;12.598;2023-03-14T03:06:50;46190.97;;;9.53
64904;BMP280;51401;48.882;12.598;2023-03-14T03:09:15;45757.69;;;9.55
64904;BMP280;51401;48.882;12.598;2023-03-14T03:11:40;45502.69;;;9.53
64904;BMP280;51401;48.882;12.598;2023-03-14T03:14:06;45301.03;;;9.52
64904;BMP280;51401;48.882;12.598;2023-03-14T03:16:31;45065.56;;;9.45
64904;BMP280;51401;48.882;12.598;2023-03-14T03:18:56;44611.44;;;9.50
64904;BMP280;51401;48.882;12.598;2023-03-14T03:21:22;44327.47;;;9.46
64904;BMP280;51401;48.882;12.598;2023-03-14T03:23:48;43948.50;;;9.54
64904;BMP280;51401;48.882;12.598;2023-03-14T03:26:14;43759.53;;;9.56
64904;BMP280;51401;48.882;12.598;2023-03-14T03:28:39;43515.88;;;9.61
64904;BMP280;51401;48.882;12.598;2023-03-14T03:31:09;43271.91;;;9.65
64904;BMP280;51401;48.882;12.598;2023-03-14T03:33:36;43269.59;;;9.61
64904;BMP280;51401;48.882;12.598;2023-03-14T03:36:01;43265.88;;;9.59
64904;BMP280;51401;48.882;12.598;2023-03-14T03:38:27;43387.84;;;9.50
64904;BMP280;51401;48.882;12.598;2023-03-14T03:40:52;43506.56;;;9.49
64904;BMP280;51401;48.882;12.598;2023-03-14T03:43:17;43604.88;;;9.44
64904;BMP280;51401;48.882;12.598;2023-03-14T03:45:43;43675.38;;;9.43
64904;BMP280;51401;48.882;12.598;2023-03-14T03:48:08;43703.91;;;9.44
64904;BMP280;51401;48.882;12.598;2023-03-14T03:50:34;43679.09;;;9.45
64904;BMP280;51401;48.882;12.598;2023-03-14T03:52:59;43503.16;;;9.48
64904;BMP280;51401;48.882;12.598;2023-03-14T03:55:24;43491.25;;;9.45
64904;BMP280;51401;48.882;12.598;2023-03-14T03:57:51;43581.63;;;9.39
64904;BMP280;51401;48.882;12.598;2023-03-14T04:00:16;43542.97;;;9.38
64904;BMP280;51401;48.882;12.598;2023-03-14T04:02:42;43542.97;;;9.38
64904;BMP280;51401;48.882;12.598;2023-03-14T04:05:07;75628.25;;;-137.53
64904;BMP280;51401;48.882;12.598;2023-03-14T04:07:33;43542.97;;;9.38
64904;BMP280;51401;48.882;12.598;2023-03-14T04:09:59;45117.22;;;9.34
64904;BMP280;51401;48.882;12.598;2023-03-14T04:12:24;44142.66;;;9.31
64904;BMP280;51401;48.882;12.598;2023-03-14T04:14:49;43780.75;;;9.28
64904;BMP280;51401;48.882;12.598;2023-03-14T04:17:14;43213.31;;;9.38
64904;BMP280;51401;48.882;12.598;2023-03-14T04:19:40;43233.72;;;9.30
64904;BMP280;51401;48.882;12.598;2023-03-14T04:22:05;43128.03;;;9.32
64904;BMP280;51401;48.882;12.598;2023-03-14T04:24:31;42946.19;;;9.33
64904;BMP280;51401;48.882;12.598;2023-03-14T04:26:56;43079.16;;;9.26
64904;BMP280;51401;48.882;12.598;2023-03-14T04:29:21;43183.09;;;9.22
64904;BMP280;51401;48.882;12.598;2023-03-14T04:31:46;43296.00;;;9.15
64904;BMP280;51401;48.882;12.598;2023-03-14T04:34:12;43390.09;;;9.11
64904;BMP280;51401;48.882;12.598;2023-03-14T04:36:37;43240.78;;;9.16
64904;BMP280;51401;48.882;12.598;2023-03-14T04:39:02;43630.09;;;9.05
64904;BMP280;51401;48.882;12.598;2023-03-14T04:41:29;43728.38;;;9.21
64904;BMP280;51401;48.882;12.598;2023-03-14T04:43:54;44001.13;;;9.15
64904;BMP280;51401;48.882;12.598;2023-03-14T04:46:19;43992.63;;;9.13
64904;BMP280;51401;48.882;12.598;2023-03-14T04:48:45;43764.97;;;9.19
64904;BMP280;51401;48.882;12.598;2023-03-14T04:51:10;43722.28;;;9.15
64904;BMP280;51401;48.882;12.598;2023-03-14T04:53:35;43736.91;;;9.14
64904;BMP280;51401;48.882;12.598;2023-03-14T04:56:02;43598.06;;;9.20
64904;BMP280;51401;48.882;12.598;2023-03-14T04:58:27;43737.50;;;9.15
64904;BMP280;51401;48.882;12.598;2023-03-14T05:00:53;43752.44;;;9.15
64904;BMP280;51401;48.882;12.598;2023-03-14T05:03:18;43877.53;;;9.12
64904;BMP280;51401;48.882;12.598;2023-03-14T05:05:44;43935.88;;;9.12
64904;BMP280;51401;48.882;12.598;2023-03-14T05:08:10;43899.63;;;9.15
64904;BMP280;51401;48.882;12.598;2023-03-14T05:10:36;44018.75;;;9.10
64904;BMP280;51401;48.882;12.598;2023-03-14T05:13:01;44167.41;;;9.04
64904;BMP280;51401;48.882;12.598;2023-03-14T05:15:26;44220.25;;;9.08
64904;BMP280;51401;48.882;12.598;2023-03-14T05:17:52;44440.84;;;9.03
64904;BMP280;51401;48.882;12.598;2023-03-14T05:20:19;44759.00;;;8.93
64904;BMP280;51401;48.882;12.598;2023-03-14T05:22:44;44835.13;;;8.93
64904;BMP280;51401;48.882;12.598;2023-03-14T05:25:09;44977.03;;;8.88
64904;BMP280;51401;48.882;12.598;2023-03-14T05:27:35;45103.69;;;8.84
64904;BMP280;51401;48.882;12.598;2023-03-14T05:30:02;45332.19;;;8.76
64904;BMP280;51401;48.882;12.598;2023-03-14T05:32:28;45502.84;;;8.73
64904;BMP280;51401;48.882;12.598;2023-03-14T05:34:53;45578.34;;;8.72
64904;BMP280;51401;48.882;12.598;2023-03-14T05:37:23;45583.44;;;8.72
64904;BMP280;51401;48.882;12.598;2023-03-14T05:39:48;45782.06;;;8.65
64904;BMP280;51401;48.882;12.598;2023-03-14T05:42:13;45634.19;;;8.72
64904;BMP280;51401;48.882;12.598;2023-03-14T05:44:39;45720.16;;;8.68
64904;BMP280;51401;48.882;12.598;2023-03-14T05:47:04;45676.06;;;8.70
64904;BMP280;51401;48.882;12.598;2023-03-14T05:49:29;45584.06;;;8.73
64904;BMP280;51401;48.882;12.598;2023-03-14T05:51:55;45556.78;;;8.74
64904;BMP280;51401;48.882;12.598;2023-03-14T05:54:20;45435.53;;;8.79
64904;BMP280;51401;48.882;12.598;2023-03-14T05:56:45;45320.66;;;8.82
64904;BMP280;51401;48.882;12.598;2023-03-14T05:59:11;45210.84;;;8.85
64904;BMP280;51401;48.882;12.598;2023-03-14T06:01:36;45118.19;;;8.87
64904;BMP280;51401;48.882;12.598;2023-03-14T06:04:01;44930.56;;;8.95
64904;BMP280;51401;48.882;12.598;2023-03-14T06:06:26;44887.09;;;8.95
64904;BMP280;51401;48.882;12.598;2023-03-14T06:08:52;44871.88;;;8.95
64904;BMP280;51401;48.882;12.598;2023-03-14T06:11:17;44740.22;;;8.95
64904;BMP280;51401;48.882;12.598;2023-03-14T06:13:42;44576.41;;;9.01
64904;BMP280;51401;48.882;12.598;2023-03-14T06:16:08;44567.88;;;9.00
64904;BMP280;51401;48.882;12.598;2023-03-14T06:18:34;44455.19;;;9.02
64904;BMP280;51401;48.882;12.598;2023-03-14T06:20:59;44136.97;;;9.13
64904;BMP280;51401;48.882;12.598;2023-03-14T06:23:24;44169.34;;;9.12
64904;BMP280;51401;48.882;12.598;2023-03-14T06:25:50;43918.41;;;9.21
64904;BMP280;51401;48.882;12.598;2023-03-14T06:28:15;43953.34;;;9.20
64904;BMP280;51401;48.882;12.598;2023-03-14T06:30:41;43784.63;;;9.26
64904;BMP280;51401;48.882;12.598;2023-03-14T06:33:06;43770.00;;;9.27
64904;BMP280;51401;48.882;12.598;2023-03-14T06:35:31;43724.72;;;9.32
64904;BMP280;51401;48.882;12.598;2023-03-14T06:37:57;43574.59;;;9.40
64904;BMP280;51401;48.882;12.598;2023-03-14T06:40:22;43675.25;;;9.38
64904;BMP280;51401;48.882;12.598;2023-03-14T06:42:48;43586.53;;;9.43
64904;BMP280;51401;48.882;12.598;2023-03-14T06:45:14;43573.94;;;9.47
64904;BMP280;51401;48.882;12.598;2023-03-14T06:47:39;43541.06;;;9.52
64904;BMP280;51401;48.882;12.598;2023-03-14T06:50:06;43383.66;;;9.65
64904;BMP280;51401;48.882;12.598;2023-03-14T06:52:32;43296.03;;;9.71
64904;BMP280;51401;48.882;12.598;2023-03-14T06:54:57;43237.88;;;9.84
64904;BMP280;51401;48.882;12.598;2023-03-14T06:57:22;43263.81;;;9.98
64904;BMP280;51401;48.882;12.598;2023-03-14T06:59:48;43339.53;;;10.14
64904;BMP280;51401;48.882;12.598;2023-03-14T07:02:13;43659.50;;;10.27
64904;BMP280;51401;48.882;12.598;2023-03-14T07:04:39;44297.19;;;10.30
64904;BMP280;51401;48.882;12.598;2023-03-14T07:07:04;45089.03;;;10.31
64904;BMP280;51401;48.882;12.598;2023-03-14T07:09:31;45980.69;;;10.33
64904;BMP280;51401;48.882;12.598;2023-03-14T07:11:56;46877.50;;;10.39
64904;BMP280;51401;48.882;12.598;2023-03-14T07:14:21;47794.59;;;10.51
64904;BMP280;51401;48.882;12.598;2023-03-14T07:16:47;49153.59;;;10.49
64904;BMP280;51401;48.882;12.598;2023-03-14T07:19:12;50609.97;;;10.51
64904;BMP280;51401;48.882;12.598;2023-03-14T07:21:37;52083.56;;;10.50
64904;BMP280;51401;48.882;12.598;2023-03-14T07:24:03;53616.38;;;10.56
64904;BMP280;51401;48.882;12.598;2023-03-14T07:26:28;55211.63;;;10.62
64904;BMP280;51401;48.882;12.598;2023-03-14T07:28:53;57077.66;;;10.60
64904;BMP280;51401;48.882;12.598;2023-03-14T07:31:19;58839.78;;;10.70
64904;BMP280;51401;48.882;12.598;2023-03-14T07:33:44;60813.81;;;10.74
64904;BMP280;51401;48.882;12.598;2023-03-14T07:36:09;62848.13;;;10.81
64904;BMP280;51401;48.882;12.598;2023-03-14T07:38:35;64860.16;;;11.00
64904;BMP280;51401;48.882;12.598;2023-03-14T07:41:02;67266.38;;;10.95
64904;BMP280;51401;48.882;12.598;2023-03-14T07:43:28;69448.16;;;10.92
64904;BMP280;51401;48.882;12.598;2023-03-14T07:45:53;71463.47;;;10.95
64904;BMP280;51401;48.882;12.598;2023-03-14T07:48:19;73373.75;;;10.95
64904;BMP280;51401;48.882;12.598;2023-03-14T07:50:48;75052.78;;;10.90
64904;BMP280;51401;48.882;12.598;2023-03-14T07:53:13;76370.06;;;11.01
64904;BMP280;51401;48.882;12.598;2023-03-14T07:55:39;77487.75;;;10.88
64904;BMP280;51401;48.882;12.598;2023-03-14T07:58:05;78676.38;;;10.88
64904;BMP280;51401;48.882;12.598;2023-03-14T08:00:31;79374.88;;;10.87
64904;BMP280;51401;48.882;12.598;2023-03-14T08:02:56;80003.53;;;10.82
64904;BMP280;51401;48.882;12.598;2023-03-14T08:05:22;80471.50;;;10.88
64904;BMP280;51401;48.882;12.598;2023-03-14T08:07:47;80624.97;;;10.87
64904;BMP280;51401;48.882;12.598;2023-03-14T08:10:12;81179.09;;;10.74
64904;BMP280;51401;48.882;12.598;2023-03-14T08:12:40;81297.84;;;10.72
64904;BMP280;51401;48.882;12.598;2023-03-14T08:15:06;81484.97;;;10.69
64904;BMP280;51401;48.882;12.598;2023-03-14T08:17:31;81718.69;;;10.72
64904;BMP280;51401;48.882;12.598;2023-03-14T08:19:57;81883.78;;;10.81
64904;BMP280;51401;48.882;12.598;2023-03-14T08:22:22;81883.13;;;10.72
64904;BMP280;51401;48.882;12.598;2023-03-14T08:24:47;82030.59;;;10.74
64904;BMP280;51401;48.882;12.598;2023-03-14T08:27:13;82389.41;;;10.79
64904;BMP280;51401;48.882;12.598;2023-03-14T08:29:39;82673.50;;;10.73
64904;BMP280;51401;48.882;12.598;2023-03-14T08:32:06;82648.06;;;10.77
64904;BMP280;51401;48.882;12.598;2023-03-14T08:34:33;82899.25;;;10.72
64904;BMP280;51401;48.882;12.598;2023-03-14T08:36:58;83152.06;;;10.72
64904;BMP280;51401;48.882;12.598;2023-03-14T08:39:23;83459.59;;;10.74
64904;BMP280;51401;48.882;12.598;2023-03-14T08:41:49;83332.06;;;10.84
64904;BMP280;51401;48.882;12.598;2023-03-14T08:44:14;83499.00;;;10.87
64904;BMP280;51401;48.882;12.598;2023-03-14T08:46:40;83582.84;;;11.02
64904;BMP280;51401;48.882;12.598;2023-03-14T08:49:05;83753.13;;;11.04
64904;BMP280;51401;48.882;12.598;2023-03-14T08:51:30;84005.75;;;11.14
64904;BMP280;51401;48.882;12.598;2023-03-14T08:53:56;83974.41;;;11.24
64904;BMP280;51401;48.882;12.598;2023-03-14T08:56:21;84128.94;;;11.36
64904;BMP280;51401;48.882;12.598;2023-03-14T08:58:46;84220.50;;;11.41
64904;BMP280;51401;48.882;12.598;2023-03-14T09:01:12;84603.88;;;11.49
64904;BMP280;51401;48.882;12.598;2023-03-14T09:03:37;84740.94;;;11.48
64904;BMP280;51401;48.882;12.598;2023-03-14T09:06:04;84876.19;;;11.64
64904;BMP280;51401;48.882;12.598;2023-03-14T09:08:30;85106.63;;;11.77
64904;BMP280;51401;48.882;12.598;2023-03-14T09:10:55;85401.91;;;11.87
64904;BMP280;51401;48.882;12.598;2023-03-14T09:13:20;85634.06;;;11.86
64904;BMP280;51401;48.882;12.598;2023-03-14T09:15:53;85679.06;;;12.09
64904;BMP280;51401;48.882;12.598;2023-03-14T09:18:19;85829.91;;;11.98
64904;BMP280;51401;48.882;12.598;2023-03-14T09:20:44;86053.13;;;11.90
64904;BMP280;51401;48.882;12.598;2023-03-14T09:23:09;86330.66;;;11.81
64904;BMP280;51401;48.882;12.598;2023-03-14T09:25:35;86339.75;;;11.78
64904;BMP280;51401;48.882;12.598;2023-03-14T09:28:00;86223.28;;;11.88
64904;BMP280;51401;48.882;12.598;2023-03-14T09:30:25;86262.66;;;12.08
64904;BMP280;51401;48.882;12.598;2023-03-14T09:32:50;86454.81;;;12.05
64904;BMP280;51401;48.882;12.598;2023-03-14T09:35:16;86594.63;;;11.97
64904;BMP280;51401;48.882;12.598;2023-03-14T09:37:41;86627.63;;;12.06
64904;BMP280;51401;48.882;12.598;2023-03-14T09:40:12;86423.09;;;12.24
64904;BMP280;51401;48.882;12.598;2023-03-14T09:42:38;86850.31;;;12.26
64904;BMP280;51401;48.882;12.598;2023-03-14T09:45:07;87129.53;;;12.43
64904;BMP280;51401;48.882;12.598;2023-03-14T09:47:35;87200.13;;;12.43
64904;BMP280;51401;48.882;12.598;2023-03-14T09:50:01;87388.53;;;12.39
64904;BMP280;51401;48.882;12.598;2023-03-14T09:52:31;87536.25;;;12.41
64904;BMP280;51401;48.882;12.598;2023-03-14T09:55:00;87808.34;;;12.45
64904;BMP280;51401;48.882;12.598;2023-03-14T09:57:27;87958.56;;;12.41
64904;BMP280;51401;48.882;12.598;2023-03-14T10:00:06;87820.06;;;12.48
64904;BMP280;51401;48.882;12.598;2023-03-14T10:02:40;88145.75;;;12.39
64904;BMP280;51401;48.882;12.598;2023-03-14T10:05:18;88195.41;;;12.30
64904;BMP280;51401;48.882;12.598;2023-03-14T10:07:43;88270.69;;;12.36
64904;BMP280;51401;48.882;12.598;2023-03-14T10:10:12;87965.31;;;12.54
64904;BMP280;51401;48.882;12.598;2023-03-14T10:12:38;88186.53;;;12.37
64904;BMP280;51401;48.882;12.598;2023-03-14T10:15:07;88184.13;;;12.45
64904;BMP280;51401;48.882;12.598;2023-03-14T10:17:50;88319.28;;;12.36
64904;BMP280;51401;48.882;12.598;2023-03-14T10:22:58;88694.50;;;12.39
64904;BMP280;51401;48.882;12.598;2023-03-14T10:25:29;88619.56;;;12.66
64904;BMP280;51401;48.882;12.598;2023-03-14T10:27:55;88599.38;;;12.63
64904;BMP280;51401;48.882;12.598;2023-03-14T10:30:30;88620.97;;;12.90
64904;BMP280;51401;48.882;12.598;2023-03-14T10:32:55;88835.44;;;13.03
64904;BMP280;51401;48.882;12.598;2023-03-14T10:35:23;88852.19;;;13.19
64904;BMP280;51401;48.882;12.598;2023-03-14T10:40:19;89131.78;;;12.84
64904;BMP280;51401;48.882;12.598;2023-03-14T10:42:45;89080.34;;;12.96
64904;BMP280;51401;48.882;12.598;2023-03-14T10:45:32;89003.31;;;13.54
64904;BMP280;51401;48.882;12.598;2023-03-14T10:48:20;89331.94;;;13.89
64904;BMP280;51401;48.882;12.598;2023-03-14T10:50:49;89829.03;;;14.62
64904;BMP280;51401;48.882;12.598;2023-03-14T10:53:17;90289.38;;;15.07
64904;BMP280;51401;48.882;12.598;2023-03-14T10:55:44;90390.09;;;15.03
64904;BMP280;51401;48.882;12.598;2023-03-14T10:58:27;90198.88;;;14.68
64904;BMP280;51401;48.882;12.598;2023-03-14T11:01:27;90189.09;;;14.04
64904;BMP280;51401;48.882;12.598;2023-03-14T11:03:59;89942.13;;;13.78
64904;BMP280;51401;48.882;12.598;2023-03-14T11:09:15;89885.63;;;13.65
64904;BMP280;51401;48.882;12.598;2023-03-14T11:11:47;89846.97;;;13.44
64904;BMP280;51401;48.882;12.598;2023-03-14T11:14:21;89711.69;;;13.54
64904;BMP280;51401;48.882;12.598;2023-03-14T11:17:29;89790.16;;;13.65
64904;BMP280;51401;48.882;12.598;2023-03-14T11:22:51;90265.00;;;13.54
64904;BMP280;51401;48.882;12.598;2023-03-14T11:28:26;90137.88;;;13.44
64904;BMP280;51401;48.882;12.598;2023-03-14T11:33:37;90272.16;;;13.42
64904;BMP280;51401;48.882;12.598;2023-03-14T11:36:08;90338.91;;;13.28
64904;BMP280;51401;48.882;12.598;2023-03-14T11:38:37;90225.06;;;13.36
64904;BMP280;51401;48.882;12.598;2023-03-14T11:41:04;90289.13;;;13.31
64904;BMP280;51401;48.882;12.598;2023-03-14T11:43:41;90298.50;;;13.36
64904;BMP280;51401;48.882;12.598;2023-03-14T11:46:57;90444.41;;;13.44
64904;BMP280;51401;48.882;12.598;2023-03-14T11:49:47;90433.56;;;13.36
64904;BMP280;51401;48.882;12.598;2023-03-14T11:54:45;90516.72;;;13.16
64904;BMP280;51401;48.882;12.598;2023-03-14T11:57:17;90412.16;;;13.04
64904;BMP280;51401;48.882;12.598;2023-03-14T12:05:38;89981.44;;;12.83
64904;BMP280;51401;48.882;12.598;2023-03-14T12:13:09;89775.38;;;12.62
64904;BMP280;51401;48.882;12.598;2023-03-14T12:15:39;89712.59;;;12.52
64904;BMP280;51401;48.882;12.598;2023-03-14T12:18:20;89995.28;;;12.52
64904;BMP280;51401;48.882;12.598;2023-03-14T12:21:00;89992.69;;;12.52
64904;BMP280;51401;48.882;12.598;2023-03-14T12:23:26;89956.06;;;12.46
64904;BMP280;51401;48.882;12.598;2023-03-14T12:26:23;89867.56;;;12.40
64904;BMP280;51401;48.882;12.598;2023-03-14T12:29:11;89734.00;;;12.39
64904;BMP280;51401;48.882;12.598;2023-03-14T12:31:46;89727.66;;;12.42
64904;BMP280;51401;48.882;12.598;2023-03-14T12:42:12;89695.84;;;12.79
64904;BMP280;51401;48.882;12.598;2023-03-14T12:44:50;89793.47;;;12.99
64904;BMP280;51401;48.882;12.598;2023-03-14T12:49:49;90015.47;;;13.38
64904;BMP280;51401;48.882;12.598;2023-03-14T12:52:19;90109.84;;;13.54
64904;BMP280;51401;48.882;12.598;2023-03-14T12:54:58;90105.50;;;13.58
64904;BMP280;51401;48.882;12.598;2023-03-14T12:57:35;90084.81;;;13.36
64904;BMP280;51401;48.882;12.598;2023-03-14T13:00:17;90001.84;;;13.51
64904;BMP280;51401;48.882;12.598;2023-03-14T13:02:44;90185.38;;;13.83
64904;BMP280;51401;48.882;12.598;2023-03-14T13:05:13;90200.53;;;15.01
64904;BMP280;51401;48.882;12.598;2023-03-14T13:12:48;90774.31;;;15.15
64904;BMP280;51401;48.882;12.598;2023-03-14T13:15:24;90625.56;;;14.53
64904;BMP280;51401;48.882;12.598;2023-03-14T13:17:53;90531.47;;;14.11
64904;BMP280;51401;48.882;12.598;2023-03-14T13:22:54;90228.56;;;13.76
64904;BMP280;51401;48.882;12.598;2023-03-14T13:25:19;90169.19;;;13.59
64904;BMP280;51401;48.882;12.598;2023-03-14T13:27:48;90120.25;;;13.43
64904;BMP280;51401;48.882;12.598;2023-03-14T13:30:19;90062.94;;;13.27
64904;BMP280;51401;48.882;12.598;2023-03-14T13:32:47;89971.00;;;13.19
64904;BMP280;51401;48.882;12.598;2023-03-14T13:35:21;89971.34;;;13.14
64904;BMP280;51401;48.882;12.598;2023-03-14T13:37:48;89805.88;;;13.01
64904;BMP280;51401;48.882;12.598;2023-03-14T13:40:34;89644.41;;;12.89
64904;BMP280;51401;48.882;12.598;2023-03-14T13:43:27;89486.63;;;12.86
64904;BMP280;51401;48.882;12.598;2023-03-14T13:46:01;88320.41;;;12.54
64904;BMP280;51401;48.882;12.598;2023-03-14T13:48:29;87156.44;;;12.14
64904;BMP280;51401;48.882;12.598;2023-03-14T13:51:16;85909.66;;;11.79
64904;BMP280;51401;48.882;12.598;2023-03-14T13:53:47;84894.06;;;11.72
64904;BMP280;51401;48.882;12.598;2023-03-14T13:56:14;84120.66;;;11.68
64904;BMP280;51401;48.882;12.598;2023-03-14T13:58:40;84179.06;;;11.77
64904;BMP280;51401;48.882;12.598;2023-03-14T14:01:13;84753.84;;;11.94
64904;BMP280;51401;48.882;12.598;2023-03-14T14:03:41;85243.50;;;12.16
64904;BMP280;51401;48.882;12.598;2023-03-14T14:06:22;85755.56;;;12.42
64904;BMP280;51401;48.882;12.598;2023-03-14T14:08:48;85949.03;;;13.05
64904;BMP280;51401;48.882;12.598;2023-03-14T14:11:37;86800.00;;;13.09
64904;BMP280;51401;48.882;12.598;2023-03-14T14:14:06;86895.91;;;12.98
64904;BMP280;51401;48.882;12.598;2023-03-14T14:16:34;86927.66;;;12.88
64904;BMP280;51401;48.882;12.598;2023-03-14T14:18:59;87011.25;;;12.91
64904;BMP280;51401;48.882;12.598;2023-03-14T14:21:25;87198.56;;;12.89
64904;BMP280;51401;48.882;12.598;2023-03-14T14:23:51;86987.88;;;12.79
64904;BMP280;51401;48.882;12.598;2023-03-14T14:26:18;87092.16;;;12.68
64904;BMP280;51401;48.882;12.598;2023-03-14T14:28:44;86983.91;;;12.60
64904;BMP280;51401;48.882;12.598;2023-03-14T14:33:44;85128.16;;;11.69
64904;BMP280;51401;48.882;12.598;2023-03-14T14:36:23;83545.72;;;11.24
64904;BMP280;51401;48.882;12.598;2023-03-14T14:39:17;82240.72;;;11.04
64904;BMP280;51401;48.882;12.598;2023-03-14T14:41:40;80733.19;;;10.80
64904;BMP280;51401;48.882;12.598;2023-03-14T14:44:07;79146.56;;;10.72
64904;BMP280;51401;48.882;12.598;2023-03-14T14:46:34;78428.47;;;10.88
64904;BMP280;51401;48.882;12.598;2023-03-14T14:49:13;77681.47;;;10.84
64904;BMP280;51401;48.882;12.598;2023-03-14T14:51:43;76868.69;;;10.44
64904;BMP280;51401;48.882;12.598;2023-03-14T14:54:10;75441.16;;;10.03
64904;BMP280;51401;48.882;12.598;2023-03-14T14:56:37;73574.75;;;9.81
64904;BMP280;51401;48.882;12.598;2023-03-14T14:59:04;71620.91;;;9.68
64904;BMP280;51401;48.882;12.598;2023-03-14T15:01:37;69735.31;;;9.58
64904;BMP280;51401;48.882;12.598;2023-03-14T15:04:10;67685.31;;;9.57